Time;durP1;ratioP1;P1;durP2;ratioP2;P2;SDS_P1;SDS_P2;PMS_P1;PMS_P2;Temp;Humidity;BMP_temperature;BMP_pressure;BME280_temperature;BME280_humidity;BME280_pressure;Samples;Min_cycle;Max_cycle;Signal;HPM_P1;HPM_P2
2022/09/28 00:01:51;;;;;;;1.98;1.83;;;10.60;99.90;;;;;;4931033;29;20028;-86
2022/09/28 00:04:17;;;;;;;4.82;2.58;;;10.60;99.90;;;;;;4932099;29;20076;-86
2022/09/28 00:06:43;;;;;;;3.00;2.60;;;10.60;99.90;;;;;;4915387;29;20048;-86
2022/09/28 00:09:09;;;;;;;2.28;2.08;;;10.60;99.90;;;;;;4930711;29;20039;-86
2022/09/28 00:11:35;;;;;;;2.65;2.45;;;10.60;99.90;;;;;;4930710;29;20060;-86
2022/09/28 00:14:02;;;;;;;4.13;3.50;;;10.60;99.90;;;;;;4930593;29;20040;-86
2022/09/28 00:16:34;;;;;;;2.88;2.00;;;10.50;99.90;;;;;;4915047;29;20139;-86
2022/09/28 00:19:02;;;;;;;2.42;2.22;;;10.50;99.90;;;;;;4930615;29;20381;-86
2022/09/28 00:21:29;;;;;;;4.00;3.03;;;10.50;99.90;;;;;;4931466;29;20107;-86
2022/09/28 00:24:16;;;;;;;2.33;2.13;;;10.50;99.90;;;;;;4931900;29;20035;-87
2022/09/28 00:26:52;;;;;;;2.60;2.22;;;10.60;99.90;;;;;;4930403;29;20470;-86
2022/09/28 00:29:32;;;;;;;2.47;2.28;;;10.50;99.90;;;;;;4930465;29;20051;-86
2022/09/28 00:32:02;;;;;;;5.82;2.97;;;10.50;99.90;;;;;;4930272;29;20076;-86
2022/09/28 00:34:37;;;;;;;3.45;3.15;;;10.50;99.90;;;;;;4930280;29;20025;-86
2022/09/28 00:37:04;;;;;;;3.63;2.80;;;10.50;99.90;;;;;;4930219;29;20024;-86
2022/09/28 00:39:31;;;;;;;5.07;2.45;;;10.50;99.90;;;;;;4930248;29;20035;-86
2022/09/28 00:41:58;;;;;;;2.70;2.35;;;10.50;99.90;;;;;;4930126;29;20044;-86
2022/09/28 00:44:36;;;;;;;3.65;2.53;;;10.50;99.90;;;;;;4930108;29;20063;-86
2022/09/28 00:47:18;;;;;;;2.10;1.63;;;10.50;99.90;;;;;;4930252;29;20043;-86
2022/09/28 00:49:54;;;;;;;2.45;2.20;;;10.50;99.90;;;;;;4914258;29;20398;-86
2022/09/28 00:52:45;;;;;;;2.20;1.98;;;10.50;99.90;;;;;;4930090;29;20032;-86
2022/09/28 00:55:19;;;;;;;3.65;3.35;;;10.50;99.90;;;;;;4914433;29;20048;-86
2022/09/28 00:57:50;;;;;;;2.10;2.00;;;10.50;99.90;;;;;;4929761;29;20040;-86
2022/09/28 01:00:16;;;;;;;4.57;2.63;;;10.50;99.90;;;;;;4929693;29;20032;-86
2022/09/28 01:02:44;;;;;;;4.28;2.95;;;10.50;99.90;;;;;;4929603;29;20060;-86
2022/09/28 01:05:11;;;;;;;2.08;1.98;;;10.50;99.90;;;;;;4929748;29;20062;-86
2022/09/28 01:07:37;;;;;;;2.70;2.50;;;10.50;99.90;;;;;;4898374;29;20036;-86
2022/09/28 01:10:05;;;;;;;3.85;2.30;;;10.50;99.90;;;;;;4914081;29;20039;-86
2022/09/28 01:12:31;;;;;;;2.47;2.38;;;10.50;99.90;;;;;;4929459;29;20032;-86
2022/09/28 01:14:59;;;;;;;2.53;2.33;;;10.50;99.90;;;;;;4910428;29;20069;-86
2022/09/28 01:17:35;;;;;;;3.42;2.72;;;10.50;99.90;;;;;;4912422;29;20028;-85
2022/09/28 01:20:16;;;;;;;3.50;3.20;;;10.50;99.90;;;;;;4910454;29;20111;-86
2022/09/28 01:23:01;;;;;;;;;;;10.50;99.90;;;;;;4895453;29;20028;-84
2022/09/28 01:26:14;;;;;;;3.45;3.17;;;10.50;99.90;;;;;;4913533;29;19911;-86
2022/09/28 01:28:42;;;;;;;3.53;3.22;;;10.50;99.90;;;;;;4909466;29;20084;-86
2022/09/28 01:31:13;;;;;;;3.92;3.00;;;10.50;99.90;;;;;;4878191;29;20041;-86
2022/09/28 01:33:49;;;;;;;3.60;2.80;;;10.50;99.90;;;;;;4921365;29;20059;-86
2022/09/28 01:36:24;;;;;;;5.13;3.08;;;10.50;99.90;;;;;;4929144;29;20032;-86
2022/09/28 01:38:53;;;;;;;3.85;3.45;;;10.50;99.90;;;;;;4930281;29;20035;-86
2022/09/28 01:41:22;;;;;;;6.03;4.18;;;10.50;99.90;;;;;;4930223;29;20024;-86
2022/09/28 01:43:55;;;;;;;3.05;2.75;;;10.50;99.90;;;;;;4929218;29;20044;-86
2022/09/28 01:46:32;;;;;;;2.88;2.67;;;10.50;99.90;;;;;;4929271;29;20043;-86
2022/09/28 01:49:04;;;;;;;8.38;3.90;;;10.50;99.90;;;;;;4928945;29;20039;-86
2022/09/28 01:51:40;;;;;;;3.45;3.00;;;10.50;99.90;;;;;;4928979;29;20044;-86
2022/09/28 01:54:33;;;;;;;3.92;3.45;;;10.50;99.90;;;;;;4928707;29;20035;-86
2022/09/28 01:57:07;;;;;;;5.05;3.25;;;10.50;99.90;;;;;;4928726;29;20490;-86
2022/09/28 01:59:36;;;;;;;3.38;3.08;;;10.50;99.90;;;;;;4913229;29;20115;-86
2022/09/28 02:02:19;;;;;;;4.68;4.28;;;10.50;99.90;;;;;;4928810;29;20021;-85
2022/09/28 02:05:06;;;;;;;3.95;3.47;;;10.40;99.90;;;;;;4928987;29;20032;-86
2022/09/28 02:07:44;;;;;;;4.65;3.90;;;10.50;99.90;;;;;;4928667;29;20032;-86
2022/09/28 02:10:15;;;;;;;3.85;3.22;;;10.40;99.90;;;;;;4928569;29;20028;-86
2022/09/28 02:12:50;;;;;;;4.07;3.67;;;10.40;99.90;;;;;;4928560;29;20036;-86
2022/09/28 02:15:32;;;;;;;5.13;4.63;;;10.40;99.90;;;;;;4928597;29;20039;-86
2022/09/28 02:18:00;;;;;;;3.80;3.08;;;10.50;99.90;;;;;;4912378;29;20059;-86
2022/09/28 02:20:28;;;;;;;3.78;3.40;;;10.50;99.90;;;;;;4928078;29;20040;-86
2022/09/28 02:22:56;;;;;;;4.95;3.78;;;10.40;99.90;;;;;;4928186;29;20036;-86
2022/09/28 02:25:30;;;;;;;3.80;3.50;;;10.50;99.90;;;;;;4912539;29;20047;-86
2022/09/28 02:27:59;;;;;;;4.28;3.85;;;10.40;99.90;;;;;;4928465;29;20032;-86
2022/09/28 02:30:31;;;;;;;6.63;4.25;;;10.40;99.90;;;;;;4928245;29;20103;-86
2022/09/28 02:33:23;;;;;;;3.28;3.03;;;10.40;99.90;;;;;;4928339;29;20038;-86
2022/09/28 02:35:49;;;;;;;3.83;3.28;;;10.50;99.90;;;;;;4928077;29;20067;-86
2022/09/28 02:38:17;;;;;;;5.13;4.43;;;10.40;99.90;;;;;;4912635;29;20029;-86
2022/09/28 02:40:53;;;;;;;5.00;3.47;;;10.40;99.90;;;;;;4912748;29;20036;-86
2022/09/28 02:43:29;;;;;;;6.30;3.10;;;10.40;99.90;;;;;;4912445;29;20107;-86
2022/09/28 02:46:38;;;;;;;5.43;4.68;;;10.40;99.90;;;;;;4928250;29;20056;-86
2022/09/28 02:49:41;;;;;;;3.72;3.42;;;10.40;99.90;;;;;;4906743;29;20067;-87
2022/09/28 02:52:33;;;;;;;6.65;4.68;;;10.40;99.90;;;;;;4928320;29;20029;-86
2022/09/28 02:55:11;;;;;;;4.32;3.70;;;10.40;99.90;;;;;;4903399;29;20055;-86
2022/09/28 02:57:58;;;;;;;2.77;2.57;;;10.40;99.90;;;;;;4928188;29;20028;-86
2022/09/28 03:00:24;;;;;;;4.47;4.13;;;10.40;99.90;;;;;;4927978;29;20486;-86
2022/09/28 03:03:08;;;;;;;6.97;4.68;;;10.40;99.90;;;;;;4896873;29;20033;-85
2022/09/28 03:06:09;;;;;;;4.88;4.18;;;10.40;99.90;;;;;;4927996;29;20056;-87
2022/09/28 03:08:58;;;;;;;6.30;3.58;;;10.40;99.90;;;;;;4910990;29;20062;-86
2022/09/28 03:11:36;;;;;;;4.03;3.03;;;10.40;99.90;;;;;;4927827;29;20489;-86
2022/09/28 03:14:03;;;;;;;4.50;4.20;;;10.40;99.90;;;;;;4926729;29;20035;-86
2022/09/28 03:16:43;;;;;;;7.25;3.83;;;10.40;99.90;;;;;;4908889;29;20060;-86
2022/09/28 03:19:15;;;;;;;3.90;3.25;;;10.40;99.90;;;;;;4909160;29;20060;-87
2022/09/28 03:21:41;;;;;;;4.60;4.30;;;10.40;99.90;;;;;;4909116;29;20040;-86
2022/09/28 03:24:09;;;;;;;5.18;3.15;;;10.40;99.90;;;;;;4909184;29;20057;-86
2022/09/28 03:26:39;;;;;;;5.80;3.28;;;10.40;99.90;;;;;;4920351;29;20044;-86
2022/09/28 03:29:05;;;;;;;;;;;10.40;99.90;;;;;;4913463;29;20032;-86
2022/09/28 03:31:31;;;;;;;4.53;3.50;;;10.40;99.90;;;;;;4931426;29;19914;-86
2022/09/28 03:33:57;;;;;;;3.63;3.05;;;10.40;99.90;;;;;;4931315;29;20119;-86
2022/09/28 03:36:23;;;;;;;3.38;2.72;;;10.40;99.90;;;;;;4931506;29;20043;-86
2022/09/28 03:38:53;;;;;;;3.47;3.17;;;10.40;99.90;;;;;;4930994;29;20024;-86
2022/09/28 03:41:19;;;;;;;3.13;2.85;;;10.40;99.90;;;;;;4915866;29;20055;-86
2022/09/28 03:43:45;;;;;;;9.50;4.13;;;10.30;99.90;;;;;;4915723;29;20032;-86
2022/09/28 03:46:12;;;;;;;3.03;2.78;;;10.30;99.90;;;;;;4931117;29;20028;-87
2022/09/28 03:48:43;;;;;;;5.00;3.05;;;10.40;99.90;;;;;;4931405;29;20032;-86
2022/09/28 03:51:11;;;;;;;4.25;3.08;;;10.30;99.90;;;;;;4915484;29;20032;-86
2022/09/28 03:53:38;;;;;;;5.93;4.00;;;10.30;99.90;;;;;;4931134;29;20024;-87
2022/09/28 03:56:13;;;;;;;3.78;3.47;;;10.40;99.90;;;;;;4930860;29;20028;-86
2022/09/28 03:58:40;;;;;;;4.30;3.63;;;10.30;99.90;;;;;;4930905;29;20037;-86
2022/09/28 04:01:11;;;;;;;7.30;5.25;;;10.30;99.90;;;;;;4931001;29;20031;-86
2022/09/28 04:03:37;;;;;;;;;;;10.30;99.90;;;;;;4931369;29;20036;-86
2022/09/28 04:06:03;;;;;;;5.28;3.42;;;10.30;99.90;;;;;;4915134;29;19915;-86
2022/09/28 04:08:29;;;;;;;3.92;3.63;;;10.30;99.90;;;;;;4915322;29;20059;-86
2022/09/28 04:10:59;;;;;;;4.72;3.92;;;10.30;99.90;;;;;;4914930;29;20028;-86
2022/09/28 04:13:26;;;;;;;4.78;4.22;;;10.30;99.90;;;;;;4930737;29;20116;-86
2022/09/28 04:15:54;;;;;;;4.20;3.58;;;10.30;99.90;;;;;;4930627;29;20107;-86
2022/09/28 04:18:21;;;;;;;9.60;3.75;;;10.30;99.90;;;;;;4930549;29;20039;-86
2022/09/28 04:21:12;;;;;;;4.05;3.15;;;10.30;99.90;;;;;;4927856;29;20040;-86
2022/09/28 04:23:43;;;;;;;7.18;3.60;;;10.30;99.90;;;;;;4930666;29;20081;-87
2022/09/28 04:26:21;;;;;;;4.25;3.85;;;10.30;99.90;;;;;;4914670;29;20027;-86
2022/09/28 04:31:50;;;;;;;4.45;4.05;;;10.30;99.90;;;;;;4930679;29;20119;-86
2022/09/28 04:34:20;;;;;;;4.15;3.22;;;10.30;99.90;;;;;;4930425;29;20055;-86
2022/09/28 04:36:47;;;;;;;5.60;3.08;;;10.30;99.90;;;;;;4930266;29;20123;-86
2022/09/28 04:39:15;;;;;;;6.88;3.78;;;10.30;99.90;;;;;;4931216;29;20036;-86
2022/09/28 04:41:47;;;;;;;5.88;3.40;;;10.30;99.90;;;;;;4930014;29;20028;-86
2022/09/28 04:44:12;;;;;;;3.33;3.03;;;10.30;99.90;;;;;;4930303;29;20043;-86
2022/09/28 04:46:38;;;;;;;2.80;2.60;;;10.30;99.90;;;;;;4930096;29;20553;-86
2022/09/28 04:49:23;;;;;;;4.63;3.92;;;10.30;99.90;;;;;;4931282;29;20112;-86
2022/09/28 04:51:55;;;;;;;3.40;2.95;;;10.30;99.90;;;;;;4929071;29;20116;-86
2022/09/28 04:54:21;;;;;;;8.77;6.20;;;10.30;99.90;;;;;;4920926;29;20032;-86
2022/09/28 04:56:47;;;;;;;4.28;3.65;;;10.20;99.90;;;;;;4925870;29;20036;-86
2022/09/28 04:59:14;;;;;;;4.35;3.95;;;10.30;99.90;;;;;;4929828;29;20035;-83
2022/09/28 05:01:41;;;;;;;6.80;4.97;;;10.20;99.90;;;;;;4915857;29;20024;-82
2022/09/28 05:04:27;;;;;;;3.38;3.08;;;10.20;99.90;;;;;;4928799;29;20046;-83
2022/09/28 05:07:16;;;;;;;4.38;3.40;;;10.20;99.90;;;;;;4916077;29;20032;-83
2022/09/28 05:09:42;;;;;;;5.05;4.63;;;10.20;99.90;;;;;;4914500;29;20096;-83
2022/09/28 05:12:09;;;;;;;4.85;4.28;;;10.20;99.90;;;;;;4914540;29;20064;-83
2022/09/28 05:14:36;;;;;;;4.95;4.55;;;10.20;99.90;;;;;;4929130;29;20036;-83
2022/09/28 05:17:03;;;;;;;5.75;4.15;;;10.20;99.90;;;;;;4912818;29;20047;-83
2022/09/28 05:19:55;;;;;;;4.32;4.03;;;10.20;99.90;;;;;;4913527;29;20552;-83
2022/09/28 05:22:21;;;;;;;5.05;4.65;;;10.20;99.90;;;;;;4911486;29;20068;-83
2022/09/28 05:24:47;;;;;;;4.55;4.15;;;10.10;99.90;;;;;;4927329;29;20040;-83
2022/09/28 05:27:13;;;;;;;4.25;3.83;;;10.10;99.90;;;;;;4912111;29;20123;-83
2022/09/28 05:29:40;;;;;;;4.68;3.78;;;10.10;99.90;;;;;;4928211;29;20040;-83
2022/09/28 05:32:45;;;;;;;4.63;4.18;;;10.10;99.90;;;;;;4905679;29;20028;-84
2022/09/28 05:35:20;;;;;;;5.55;4.10;;;10.10;99.90;;;;;;4898018;29;20084;-84
2022/09/28 05:37:48;;;;;;;4.90;4.13;;;10.10;99.90;;;;;;4928002;29;20036;-84
2022/09/28 05:40:14;;;;;;;5.72;4.82;;;10.10;99.90;;;;;;4929080;29;20573;-85
2022/09/28 05:42:41;;;;;;;6.20;5.47;;;10.10;99.90;;;;;;4912223;29;20032;-84
2022/09/28 05:45:08;;;;;;;6.38;4.55;;;10.10;99.90;;;;;;4915474;29;20044;-85
2022/09/28 05:47:39;;;;;;;5.53;5.03;;;10.10;99.90;;;;;;4913509;29;20481;-85
2022/09/28 05:50:08;;;;;;;8.68;6.10;;;10.10;99.90;;;;;;4909630;29;20060;-85
2022/09/28 05:52:34;;;;;;;6.22;5.50;;;10.10;99.90;;;;;;4912789;29;20126;-84
2022/09/28 05:55:01;;;;;;;7.35;4.97;;;10.10;99.90;;;;;;4913804;29;20036;-85
2022/09/28 05:57:27;;;;;;;7.28;5.88;;;10.10;99.90;;;;;;4897326;29;20045;-84
2022/09/28 05:59:53;;;;;;;6.93;6.22;;;10.10;99.90;;;;;;4918835;29;20032;-85
2022/09/28 06:02:19;;;;;;;7.38;5.25;;;10.10;99.90;;;;;;4894651;29;20061;-84
2022/09/28 06:04:47;;;;;;;5.90;5.07;;;10.10;99.90;;;;;;4929183;29;20060;-84
2022/09/28 06:07:12;;;;;;;6.70;5.78;;;10.10;99.90;;;;;;4923959;29;20052;-85
2022/09/28 06:09:38;;;;;;;6.72;5.70;;;10.10;99.90;;;;;;4929185;29;20036;-85
2022/09/28 06:12:33;;;;;;;6.50;5.75;;;10.10;99.90;;;;;;4892695;29;20120;-85
2022/09/28 06:15:06;;;;;;;7.38;5.80;;;10.20;99.90;;;;;;4927860;29;20028;-85
2022/09/28 06:17:32;;;;;;;7.88;5.65;;;10.10;99.90;;;;;;4896399;29;20035;-86
2022/09/28 06:20:18;;;;;;;6.35;5.75;;;10.10;99.90;;;;;;4928000;29;20028;-85
2022/09/28 06:22:55;;;;;;;10.65;5.13;;;10.10;99.90;;;;;;4912706;29;20042;-85
2022/09/28 06:25:22;;;;;;;6.85;5.35;;;10.10;99.90;;;;;;4927635;29;20474;-85
2022/09/28 06:27:56;;;;;;;7.68;6.90;;;10.10;99.90;;;;;;4928133;29;20035;-85
2022/09/28 06:30:25;;;;;;;14.68;11.45;;;10.10;99.90;;;;;;4927757;29;20099;-85
2022/09/28 06:32:55;;;;;;;13.85;11.65;;;10.10;99.90;;;;;;4913201;29;20020;-85
2022/09/28 06:35:22;;;;;;;11.55;10.35;;;10.10;99.90;;;;;;4912917;29;20043;-85
2022/09/28 06:37:50;;;;;;;18.95;16.25;;;10.10;99.90;;;;;;4897085;29;20095;-85
2022/09/28 06:40:17;;;;;;;15.10;13.63;;;10.10;99.90;;;;;;4912307;29;20032;-86
2022/09/28 06:42:43;;;;;;;13.60;11.93;;;10.10;99.90;;;;;;4939970;29;20047;-85
2022/09/28 06:45:29;;;;;;;12.23;11.13;;;10.10;99.90;;;;;;4908896;29;20028;-86
2022/09/28 06:48:21;;;;;;;9.07;8.18;;;10.10;99.90;;;;;;4921073;29;20036;-85
2022/09/28 06:50:49;;;;;;;8.77;7.97;;;10.10;99.90;;;;;;4927415;29;20039;-85
2022/09/28 06:53:31;;;;;;;6.47;5.88;;;10.10;99.90;;;;;;4928057;29;20020;-85
2022/09/28 06:56:18;;;;;;;6.93;6.05;;;10.10;99.90;;;;;;4928790;29;20032;-85
2022/09/28 06:58:45;;;;;;;9.48;7.03;;;10.10;99.90;;;;;;4915578;29;20086;-85
2022/09/28 07:01:11;;;;;;;7.13;6.43;;;10.10;99.90;;;;;;4909521;29;20043;-85
2022/09/28 07:03:45;;;;;;;6.43;5.90;;;10.10;99.90;;;;;;4897294;29;20116;-85
2022/09/28 07:06:47;;;;;;;6.00;5.45;;;10.20;99.90;;;;;;4917499;29;20043;-85
2022/09/28 07:09:32;;;;;;;4.72;4.32;;;10.10;99.90;;;;;;4932589;29;20047;-85
2022/09/28 07:12:18;;;;;;;5.22;4.72;;;10.10;99.90;;;;;;4922298;29;20060;-85
2022/09/28 07:15:02;;;;;;;5.28;4.78;;;10.10;99.90;;;;;;4918797;29;20375;-85
2022/09/28 07:17:30;;;;;;;4.68;4.28;;;10.10;99.90;;;;;;4930517;29;20028;-85
2022/09/28 07:19:59;;;;;;;11.38;5.28;;;10.10;99.90;;;;;;4901853;29;20030;-84
2022/09/28 07:22:25;;;;;;;5.93;5.40;;;10.20;99.90;;;;;;4901560;29;20036;-84
2022/09/28 07:24:52;;;;;;;4.32;4.03;;;10.10;99.90;;;;;;4932340;29;20020;-84
2022/09/28 07:27:36;;;;;;;5.22;4.32;;;10.20;99.90;;;;;;4934086;29;20103;-85
2022/09/28 07:30:16;;;;;;;6.35;4.22;;;10.20;99.90;;;;;;4919867;29;20060;-85
2022/09/28 07:33:04;;;;;;;4.75;4.35;;;10.20;99.90;;;;;;4933458;29;20045;-85
2022/09/28 07:35:50;;;;;;;4.63;4.20;;;10.20;99.90;;;;;;4932020;29;20496;-84
2022/09/28 07:38:17;;;;;;;9.02;5.10;;;10.20;99.90;;;;;;4930874;29;20084;-83
2022/09/28 07:43:28;;;;;;;6.25;4.63;;;10.20;99.90;;;;;;4916988;29;20036;-85
2022/09/28 07:45:54;;;;;;;4.57;4.18;;;10.20;99.90;;;;;;4928384;29;20044;-84
2022/09/28 07:48:21;;;;;;;5.50;3.92;;;10.20;99.90;;;;;;4897336;29;20024;-84
2022/09/28 07:51:06;;;;;;;9.30;4.10;;;10.20;99.90;;;;;;4914448;29;20047;-84
2022/09/28 07:53:39;;;;;;;4.97;4.47;;;10.30;99.90;;;;;;4913176;29;20041;-83
2022/09/28 07:56:22;;;;;;;5.20;3.97;;;10.30;99.90;;;;;;4899483;29;20036;-83
2022/09/28 07:59:17;;;;;;;5.00;3.33;;;10.20;99.90;;;;;;4900157;29;20455;-82
2022/09/28 08:02:02;;;;;;;4.70;4.22;;;10.30;99.90;;;;;;4913769;29;20399;-83
2022/09/28 08:04:29;;;;;;;5.15;4.70;;;10.30;99.90;;;;;;4926524;29;20032;-83
2022/09/28 08:06:55;;;;;;;4.43;4.03;;;10.30;99.90;;;;;;4931524;29;20028;-83
2022/09/28 08:09:21;;;;;;;4.03;3.65;;;10.40;99.90;;;;;;4933404;29;20059;-84
2022/09/28 08:12:06;;;;;;;4.13;3.75;;;10.30;99.90;;;;;;4931326;29;20068;-84
2022/09/28 08:14:40;;;;;;;7.25;3.33;;;10.40;99.90;;;;;;4929816;29;20024;-84
2022/09/28 08:17:28;;;;;;;3.55;3.13;;;10.40;99.90;;;;;;4921129;29;20557;-83
2022/09/28 08:22:41;;;;;;;6.75;3.97;;;10.50;99.90;;;;;;4931175;29;20036;-83
2022/09/28 08:25:08;;;;;;;6.57;3.15;;;10.50;99.90;;;;;;4931017;29;20133;-83
2022/09/28 08:27:33;;;;;;;4.13;2.63;;;10.60;99.90;;;;;;4930385;29;20047;-83
2022/09/28 08:30:00;;;;;;;4.32;2.58;;;10.60;99.90;;;;;;4930521;29;20051;-83
2022/09/28 08:32:49;;;;;;;3.38;3.08;;;10.70;99.90;;;;;;4903762;29;20024;-85
2022/09/28 08:35:34;;;;;;;3.30;3.00;;;10.70;99.90;;;;;;4930951;29;20043;-85
2022/09/28 08:38:20;;;;;;;3.42;2.92;;;10.80;99.90;;;;;;4916586;29;20065;-85
2022/09/28 08:41:34;;;;;;;3.75;3.03;;;10.80;99.90;;;;;;4927793;29;20032;-84
2022/09/28 08:44:23;;;;;;;6.32;2.17;;;10.90;99.90;;;;;;4930481;29;20398;-85
2022/09/28 08:50:32;;;;;;;3.77;1.90;;;11.00;99.90;;;;;;4937640;29;20028;-86
2022/09/28 08:53:44;;;;;;;4.90;1.63;;;11.10;99.90;;;;;;4930388;29;20300;-85
2022/09/28 08:56:56;;;;;;;1.80;1.70;;;11.10;99.90;;;;;;4924484;29;20044;-86
2022/09/28 08:59:27;;;;;;;2.55;2.35;;;11.20;99.90;;;;;;4839326;29;20067;-86
2022/09/28 09:02:02;;;;;;;1.63;1.52;;;11.30;99.90;;;;;;4903204;29;20036;-86
2022/09/28 09:04:31;;;;;;;8.55;1.88;;;11.40;99.90;;;;;;4895714;29;20052;-89
2022/09/28 09:07:30;;;;;;;2.47;1.63;;;11.40;99.90;;;;;;4898767;29;20029;-84
2022/09/28 09:10:12;;;;;;;1.60;1.45;;;11.40;99.90;;;;;;4911453;29;20041;-84
2022/09/28 09:13:17;;;;;;;2.40;0.95;;;11.50;99.90;;;;;;4898129;29;20036;-86
2022/09/28 09:15:50;;;;;;;1.50;1.35;;;11.60;99.90;;;;;;4930114;29;20036;-85
2022/09/28 09:18:52;;;;;;;4.68;1.90;;;11.60;99.90;;;;;;4930997;29;20063;-85
2022/09/28 09:21:40;;;;;;;1.40;1.17;;;11.70;99.90;;;;;;4915959;29;20058;-85
2022/09/28 09:24:26;;;;;;;2.75;1.38;;;11.80;99.90;;;;;;4930258;29;20402;-84
2022/09/28 09:27:19;;;;;;;1.48;1.38;;;11.70;99.90;;;;;;4930140;29;20055;-86
2022/09/28 09:30:07;;;;;;;1.40;1.00;;;11.80;99.90;;;;;;4914538;29;20052;-85
2022/09/28 09:33:14;;;;;;;1.63;1.45;;;11.70;99.90;;;;;;4930058;29;20024;-85
2022/09/28 09:36:24;;;;;;;3.67;1.15;;;11.90;99.90;;;;;;4909282;29;20032;-85
2022/09/28 09:39:30;;;;;;;2.03;0.85;;;12.00;99.90;;;;;;4912306;29;20064;-85
2022/09/28 09:42:53;;;;;;;1.52;1.42;;;12.00;99.90;;;;;;4933247;29;20532;-85
2022/09/28 09:46:11;;;;;;;4.97;2.33;;;12.10;99.90;;;;;;4911353;29;20036;-85
2022/09/28 09:48:58;;;;;;;1.65;1.02;;;12.10;99.90;;;;;;4896189;29;20047;-84
2022/09/28 09:51:39;;;;;;;2.45;1.55;;;12.20;99.90;;;;;;4911216;29;20114;-85
2022/09/28 09:54:15;;;;;;;0.65;0.65;;;12.30;99.90;;;;;;4902934;29;20059;-85
2022/09/28 09:56:48;;;;;;;1.50;1.40;;;12.30;99.90;;;;;;4910590;29;20032;-85
2022/09/28 09:59:39;;;;;;;3.92;1.05;;;12.30;99.90;;;;;;4930581;29;20115;-85
2022/09/28 10:02:28;;;;;;;2.03;1.38;;;12.30;99.90;;;;;;4915572;29;20036;-85
2022/09/28 10:05:12;;;;;;;1.10;0.90;;;12.30;99.90;;;;;;4928663;29;20032;-86
2022/09/28 10:07:57;;;;;;;0.75;0.73;;;12.40;99.90;;;;;;4912938;29;20033;-86
2022/09/28 10:10:37;;;;;;;5.35;1.83;;;12.50;99.90;;;;;;4932820;29;20036;-85
2022/09/28 10:13:08;;;;;;;0.68;0.40;;;12.60;99.90;;;;;;4910298;29;20028;-88
2022/09/28 10:15:35;;;;;;;0.73;0.70;;;12.70;99.90;;;;;;4927271;29;20036;-87
2022/09/28 10:18:14;;;;;;;0.40;0.40;;;12.70;99.90;;;;;;4914213;29;20032;-88
2022/09/28 10:20:58;;;;;;;2.20;0.95;;;12.80;99.90;;;;;;4913427;29;20131;-88
2022/09/28 10:23:42;;;;;;;1.63;0.57;;;12.80;99.90;;;;;;4926770;29;20024;-88
2022/09/28 10:26:21;;;;;;;3.70;0.95;;;13.00;99.90;;;;;;4912732;29;20036;-88
2022/09/28 10:28:57;;;;;;;2.97;1.05;;;12.80;99.90;;;;;;4928578;29;20024;-88
2022/09/28 10:31:44;;;;;;;1.25;0.85;;;12.80;99.90;;;;;;4927081;29;20024;-86
2022/09/28 10:34:28;;;;;;;3.80;0.95;;;12.80;99.90;;;;;;4909741;29;20498;-86
2022/09/28 10:37:02;;;;;;;2.47;0.40;;;12.90;99.90;;;;;;4930076;29;20032;-87
2022/09/28 10:39:49;;;;;;;1.85;0.82;;;12.90;99.90;;;;;;4928865;29;20024;-86
2022/09/28 10:42:22;;;;;;;1.00;0.55;;;12.90;99.90;;;;;;4913690;29;20028;-85
2022/09/28 10:45:19;;;;;;;1.58;0.80;;;13.00;99.90;;;;;;4913983;29;20087;-86
2022/09/28 10:47:45;;;;;;;1.05;0.95;;;12.90;99.90;;;;;;4930115;29;20032;-86
2022/09/28 10:50:26;;;;;;;2.55;0.60;;;12.80;99.90;;;;;;4929919;29;20056;-86
2022/09/28 10:53:11;;;;;;;1.98;0.40;;;12.80;99.90;;;;;;4928898;29;20059;-87
2022/09/28 10:56:19;;;;;;;0.60;0.47;;;12.90;99.90;;;;;;4926450;29;20040;-86
2022/09/28 10:58:47;;;;;;;1.38;0.25;;;13.00;99.90;;;;;;4929980;29;20024;-85
2022/09/28 11:01:31;;;;;;;1.10;1.10;;;13.10;99.90;;;;;;4929345;29;20020;-86
2022/09/28 11:04:06;;;;;;;1.92;1.15;;;13.10;99.90;;;;;;4929519;29;20442;-86
2022/09/28 11:06:39;;;;;;;0.43;0.43;;;13.10;99.90;;;;;;4929663;29;20035;-86
2022/09/28 11:09:40;;;;;;;1.30;0.80;;;13.00;99.90;;;;;;4929749;29;20028;-87
2022/09/28 11:12:14;;;;;;;5.35;0.57;;;12.90;99.90;;;;;;4923272;29;20044;-86
2022/09/28 11:14:42;;;;;;;0.77;0.47;;;12.80;99.90;;;;;;4929625;29;20032;-85
2022/09/28 11:17:31;;;;;;;0.70;0.68;;;12.90;99.90;;;;;;4929584;29;20375;-86
2022/09/28 11:20:23;;;;;;;0.98;0.88;;;12.90;99.90;;;;;;4929696;29;20035;-86
2022/09/28 11:22:57;;;;;;;0.82;0.80;;;13.00;99.90;;;;;;4928862;29;20103;-88
2022/09/28 11:25:29;;;;;;;1.75;0.60;;;13.00;99.90;;;;;;4929173;29;20032;-86
2022/09/28 11:28:04;;;;;;;1.65;1.55;;;13.10;99.90;;;;;;4913688;29;20044;-85
2022/09/28 11:30:39;;;;;;;1.08;0.93;;;12.90;99.90;;;;;;4929766;29;20040;-86
2022/09/28 11:33:37;;;;;;;1.10;0.60;;;12.90;99.90;;;;;;4919767;29;20025;-85
2022/09/28 11:36:23;;;;;;;1.13;0.70;;;12.90;99.90;;;;;;4928563;29;20044;-86
2022/09/28 11:39:08;;;;;;;2.35;0.65;;;12.90;99.90;;;;;;4928162;29;20024;-86
2022/09/28 11:42:15;;;;;;;1.05;0.95;;;13.00;99.90;;;;;;4927744;29;20032;-85
2022/09/28 11:44:45;;;;;;;0.68;0.68;;;13.00;99.90;;;;;;4912786;29;20028;-85
2022/09/28 11:47:31;;;;;;;1.55;0.82;;;13.00;99.90;;;;;;4927683;29;20025;-86
2022/09/28 11:50:17;;;;;;;1.33;1.08;;;13.10;99.90;;;;;;4928283;29;20078;-86
2022/09/28 11:53:34;;;;;;;3.17;0.68;;;13.10;99.90;;;;;;4915573;29;20028;-85
2022/09/28 11:56:26;;;;;;;1.67;0.60;;;13.20;99.90;;;;;;4900590;29;20142;-85
2022/09/28 11:59:01;;;;;;;0.82;0.40;;;13.00;99.90;;;;;;4916689;29;20040;-85
2022/09/28 12:01:48;;;;;;;0.70;0.50;;;13.00;99.90;;;;;;4931915;29;20058;-86
2022/09/28 12:04:39;;;;;;;1.17;0.35;;;13.00;99.90;;;;;;4904763;29;20024;-86
2022/09/28 12:07:15;;;;;;;0.75;0.73;;;13.00;99.90;;;;;;4934001;29;20032;-85
2022/09/28 12:09:54;;;;;;;4.78;0.88;;;12.90;99.90;;;;;;4919093;29;20031;-86
2022/09/28 12:12:33;;;;;;;2.95;1.05;;;13.00;99.90;;;;;;4917839;29;20056;-85
2022/09/28 12:15:11;;;;;;;0.50;0.50;;;13.10;99.90;;;;;;4933317;29;20398;-86
2022/09/28 12:17:44;;;;;;;7.13;1.42;;;13.20;99.90;;;;;;4934070;29;20028;-86
2022/09/28 12:20:26;;;;;;;1.88;0.90;;;13.30;99.90;;;;;;4932481;29;20032;-86
2022/09/28 12:23:01;;;;;;;0.60;0.60;;;13.40;99.90;;;;;;4931500;29;20032;-86
2022/09/28 12:25:32;;;;;;;0.57;0.57;;;13.50;99.90;;;;;;4915396;29;20028;-85
2022/09/28 12:28:00;;;;;;;2.08;1.10;;;13.60;99.90;;;;;;4930686;29;20028;-86
2022/09/28 12:30:33;;;;;;;1.48;0.55;;;13.70;99.90;;;;;;4930973;29;20035;-86
2022/09/28 12:33:11;;;;;;;2.42;1.83;;;13.60;99.90;;;;;;4930879;29;20402;-85
2022/09/28 12:36:06;;;;;;;4.38;1.63;;;13.60;99.90;;;;;;4932424;29;20036;-85
2022/09/28 12:38:42;;;;;;;1.73;1.17;;;13.50;99.90;;;;;;4931039;29;20043;-85
2022/09/28 12:41:21;;;;;;;1.83;1.05;;;13.50;99.90;;;;;;4915625;29;20040;-85
2022/09/28 12:44:25;;;;;;;1.67;1.42;;;13.60;99.90;;;;;;4931236;29;20079;-85
2022/09/28 12:47:11;;;;;;;5.63;1.30;;;13.70;99.90;;;;;;4931211;29;20175;-86
2022/09/28 12:50:10;;;;;;;1.73;1.38;;;13.80;99.90;;;;;;4930461;29;20103;-84
2022/09/28 12:53:22;;;;;;;1.67;0.93;;;13.70;99.90;;;;;;4911818;29;20402;-85
2022/09/28 12:56:03;;;;;;;4.63;1.90;;;13.70;99.90;;;;;;4920313;29;20055;-85
2022/09/28 12:58:59;;;;;;;4.65;1.70;;;13.60;99.90;;;;;;4909850;29;20043;-85
2022/09/28 13:01:28;;;;;;;2.20;1.15;;;13.60;99.90;;;;;;4929733;29;20063;-86
2022/09/28 13:04:00;;;;;;;3.50;1.10;;;13.60;99.90;;;;;;4931353;29;20028;-85
2022/09/28 13:07:03;;;;;;;0.95;0.85;;;13.60;99.90;;;;;;4933936;29;20028;-85
2022/09/28 13:09:43;;;;;;;4.22;1.10;;;13.70;99.90;;;;;;4921194;29;20032;-86
2022/09/28 13:12:27;;;;;;;2.30;0.85;;;13.70;99.90;;;;;;4933295;29;20035;-85
2022/09/28 13:15:26;;;;;;;1.83;1.17;;;13.80;99.90;;;;;;4931711;29;20034;-86
2022/09/28 13:18:42;;;;;;;1.05;0.90;;;13.80;99.90;;;;;;4928116;29;20115;-86
2022/09/28 13:21:23;;;;;;;1.38;1.27;;;13.90;99.90;;;;;;4878567;29;20095;-86
2022/09/28 13:23:51;;;;;;;1.35;1.25;;;13.90;99.90;;;;;;4878796;29;20028;-86
2022/09/28 13:26:28;;;;;;;1.58;1.40;;;14.00;99.90;;;;;;4904682;29;20064;-86
2022/09/28 13:29:08;;;;;;;1.60;1.50;;;13.90;99.90;;;;;;4929358;29;20043;-86
2022/09/28 13:31:39;;;;;;;2.13;1.33;;;13.80;99.90;;;;;;4930632;29;20070;-86
2022/09/28 13:34:11;;;;;;;1.35;1.15;;;13.70;99.90;;;;;;4929126;29;20028;-86
2022/09/28 13:36:38;;;;;;;1.58;1.48;;;13.80;99.90;;;;;;4928580;29;20051;-87
2022/09/28 13:39:45;;;;;;;1.40;1.02;;;13.90;99.90;;;;;;4928869;29;20176;-86
2022/09/28 13:42:23;;;;;;;1.73;1.45;;;13.70;99.90;;;;;;4922021;29;20035;-86
2022/09/28 13:45:21;;;;;;;5.07;1.80;;;13.70;99.90;;;;;;4930058;29;20088;-86
2022/09/28 13:47:53;;;;;;;1.50;1.40;;;13.60;99.90;;;;;;4931145;29;20031;-86
2022/09/28 13:50:57;;;;;;;1.98;1.10;;;13.60;99.90;;;;;;4913605;29;20059;-87
2022/09/28 13:53:45;;;;;;;11.82;1.45;;;13.50;99.90;;;;;;4929257;29;20045;-87
2022/09/28 13:56:25;;;;;;;0.88;0.88;;;13.40;99.90;;;;;;4934631;29;20028;-88